EST,Max TemperatureF,Mean TemperatureF,Min TemperatureF,Max Dew PointF,MeanDew PointF,Min DewpointF,Max Humidity, Mean Humidity, Min Humidity, Max Sea Level PressureIn, Mean Sea Level PressureIn, Min Sea Level PressureIn, Max VisibilityMiles, Mean VisibilityMiles, Min VisibilityMiles, Max Wind SpeedMPH, Mean Wind SpeedMPH, Max Gust SpeedMPH,PrecipitationIn, CloudCover, Events, WindDirDegrees
2012-11-1,41,38,35,39,36,34,100,92,87,29.73,29.65,29.58,10,7,2,15,9,23,0.15,8,,262
2012-11-2,37,35,33,34,32,30,93,87,75,29.96,29.81,29.70,10,8,2,15,8,24,0.11,8,,281
2012-11-3,39,36,33,34,31,28,93,82,65,30.09,30.04,29.96,10,9,2,12,7,20,0.05,8,,302
2012-11-4,35,34,32,32,26,25,87,72,65,30.11,30.09,30.08,10,10,10,9,3,,0.00,8,,318
2012-11-5,35,34,30,28,25,21,87,70,60,30.16,30.12,30.07,10,10,10,9,3,,0.00,8,,330
2012-11-6,44,36,28,25,21,19,69,59,42,30.15,30.05,29.96,10,10,10,12,5,18,0.00,2,,104
2012-11-7,39,32,26,25,20,18,80,63,42,30.04,29.99,29.94,10,10,7,10,6,,0.00,0,,44
2012-11-8,44,34,24,30,25,19,86,69,46,30.14,30.10,30.03,10,10,8,10,6,18,0.00,2,,333
2012-11-9,48,39,30,34,31,27,93,75,58,30.24,30.18,30.13,10,9,4,10,6,,0.00,4,,235
2012-11-10,59,47,35,43,37,34,93,68,47,30.26,30.22,30.17,10,9,4,14,5,,0.00,5,,164
2012-11-11,66,56,46,37,35,34,62,43,32,30.35,30.27,30.21,10,10,10,17,10,22,0.00,0,,178
2012-11-12,66,50,32,48,41,27,93,63,41,30.29,30.15,29.97,10,10,5,28,15,40,0.33,4,,198
2012-11-13,33,30,28,27,24,19,86,75,60,30.52,30.40,30.30,10,10,10,13,7,20,0.05,8,,264
2012-11-14,37,32,28,27,23,21,86,69,52,30.55,30.49,30.38,10,10,10,9,3,,0.00,5,,45
2012-11-15,46,35,24,27,23,21,86,67,37,30.38,30.32,30.29,10,10,10,7,4,,0.00,0,,80
2012-11-16,48,37,26,30,27,23,93,72,43,30.49,30.39,30.31,10,10,7,7,2,,0.00,0,,356
2012-11-17,51,38,24,30,27,19,100,71,41,30.62,30.56,30.49,10,8,2,7,2,,0.00,0,,56
2012-11-18,51,38,26,30,27,23,93,69,41,30.56,30.51,30.45,10,10,5,9,5,,0.00,0,,103
2012-11-19,50,38,26,34,29,25,93,72,47,30.45,30.34,30.21,10,9,3,7,4,,0.00,0,,109
2012-11-20,48,39,30,34,30,28,93,73,50,30.21,30.15,30.10,10,10,5,5,1,,0.00,2,,33
2012-11-21,57,42,26,34,25,18,100,60,24,30.24,30.20,30.14,10,9,2,5,1,,0.00,0,,13
2012-11-22,57,42,26,36,27,19,80,55,38,30.23,30.16,30.03,10,10,10,13,4,16,0.00,0,,185
2012-11-23,53,40,28,43,30,21,93,65,30,30.02,29.86,29.73,10,10,4,22,13,32,0.02,5,,228
2012-11-24,30,28,26,25,22,19,86,79,64,30.01,29.95,29.89,10,8,1,17,12,23,0.01,8,,268
2012-11-25,33,28,24,25,20,18,86,69,52,29.99,29.91,29.83,10,9,1,15,9,23,0.00,7,,235
2012-11-26,39,34,28,27,25,23,86,73,56,30.21,30.11,29.94,10,9,5,13,6,16,0.00,7,,273
2012-11-27,33,30,26,28,23,18,93,76,55,30.27,30.23,30.19,10,9,2,6,1,,0.00,8,,327
2012-11-28,35,29,23,21,20,18,80,68,52,30.30,30.25,30.20,10,10,10,15,5,20,0.00,6,,252
2012-11-29,44,34,24,25,20,18,86,62,36,30.34,30.29,30.24,10,9,6,12,8,20,0.00,0,,229
2012-11-30,46,36,26,28,25,18,74,60,46,30.28,30.24,30.17,10,10,10,12,5,18,0.00,5,,166